Hood Army Air Field Fort Hood(Killeen) US
ICAO: KHLR
IATA: HLR
Category: Medium
Scheduled Services: No

Elevation: 924 ft
TransAlt. 18000 ft.

Airport Communications:
GRAY APP/DEP:120.075
CLNC DEL:22.54
GND:133.85
RANGE CON:30.45
FORT HOOD FLT FLW:143.1
PMSV GRAY METRO:41.2
TWR:119.65

KHLR Zoom In..

Runways:

(A) RW 16 length 3701 ft width 144 ft
---- / hdg 158

(B) RW 34 length 3701 ft width 144 ft
---- / hdg 338

Location; KHLR
Day. 30 / Time. 21.58 Zulu
* Altimeter: 30.05
* Temperature: 30° c. 86°f.
* Wind from: 090° Speed 09 kn.
Dewpoint: 14° c.
Visibility: 10 Statute Miles.
Clouds: Clear (automated report).

KHLR 302158Z AUTO 09009KT 10SM CLR 30/14 A3005 RMK AO2 SLP166 T02990139


Wind From 090°
Speed 09 kn.

 
 
jpsmedia worldairports.se 2020   terms of use